Last 24 Hour KALB Observations

Last 24 hours of surface weather observations from the Albany County Airport. Observations taken by the National Weather Service.


		
KALB 030551Z 00000KT 10SM OVC045 16/11 A2970 RMK AO2 SLP057 60001 T01560106
 10189 20150 56031=
KALB 030651Z 13003KT 10SM SCT039 BKN120 OVC130 16/09 A2968 RMK AO2 SLP049
 T01610094=
KALB 030751Z 18003KT 10SM SCT039 BKN140 15/09 A2967 RMK AO2 SLP046 T01500094=
KALB 030851Z 17003KT 10SM BKN042 OVC055 16/11 A2966 RMK AO2 SLP041 T01560106
 56016=
KALB 030931Z 15006KT 10SM BKN026 BKN038 OVC050 16/11 A2964 RMK AO2 T01610106=
KALB 030931Z 15006KT 10SM BKN026 BKN038 OVC050 16/11 A2964=
KALB 030951Z VRB03KT 10SM OVC026 16/11 A2965 RMK AO2 SLP040 T01560106=
KALB 031051Z 16007KT 10SM OVC025 16/11 A2965 RMK AO2 SLP039 T01610106=
KALB 031151Z 17006KT 10SM BKN027 OVC035 16/11 A2965 RMK AO2 SLP039 70003
 T01610111 10161 20144 55002=
KALB 031211Z 16005KT 10SM SCT027 OVC035 17/11 A2964 RMK AO2 T01670111=
KALB 031211Z 16005KT 10SM SCT027 OVC035 17/11 A2964=
KALB 031251Z 12006KT 10SM FEW027 BKN035 OVC045 18/12 A2963 RMK AO2 SLP033
 T01780117=
KALB 031351Z 18004KT 10SM BKN031 OVC045 18/12 A2964 RMK AO2 SLP035 T01780117=
KALB 031445Z 16004KT 10SM OVC026 19/13 A2961 RMK AO2=
KALB 031445Z 16004KT 10SM OVC026 19/13 A2961=
KALB 031451Z 16005KT 10SM OVC026 19/13 A2961 RMK AO2 SLP026 T01940128 58007=
KALB 031551Z 14004KT 10SM OVC024 19/13 A2957 RMK AO2 SLP012 T01940128=
KALB 031651Z 20007KT 10SM OVC024 21/13 A2959 RMK AO2 SLP019 T02060133=
KALB 031736Z 17006KT 10SM -RA FEW024 BKN033 OVC043 21/14 A2959 RMK AO2 RAB19
 PCPN VRY LGT P0000 T02110144=
KALB 031736Z 17006KT 10SM -RA FEW024 BKN033 OVC043 21/14 A2959=
KALB 031751Z 16006KT 10SM FEW024 BKN033 OVC043 21/14 A2959 RMK AO2 RAB19E48
 SLP018 P0000 60000 T02110144 10211 20167 56008=
KALB 031851Z 00000KT 10SM FEW033 FEW050 SCT080 BKN180 23/16 A2956 RMK AO2
 SLP010 T02330156=
KALB 031951Z 34006KT 10SM SCT030 BKN045 BKN080 BKN180 24/17 A2956 RMK AO2
 SLP010 BKN045 V SCT T02440167=
KALB 032051Z 27016G22KT 10SM FEW036 SCT046 SCT080 BKN180 27/14 A2956 RMK AO2
 SLP009 T02720144 56008=
KALB 032151Z 28009G21KT 10SM FEW035 FEW046 FEW180 BKN250 26/14 A2958 RMK AO2 PK
 WND 26026/2052 SLP014 T02560139=
KALB 032251Z 27009KT 10SM FEW035 FEW046 BKN250 25/14 A2960 RMK AO2 SLP020
 T02500139=
KALB 032351Z 30005KT 10SM FEW035 FEW046 BKN230 23/14 A2961 RMK AO2 SLP025
 T02330139 10272 20217 51015=
KALB 040051Z 25006KT 10SM FEW035 SCT050 SCT180 SCT230 22/14 A2963 RMK AO2
 SLP034 T02170139=
KALB 040151Z 27005KT 10SM FEW041 21/14 A2966 RMK AO2 SLP042 T02060144=
KALB 040151Z COR 27005KT 10SM FEW041 FEW120 SCT230 21/14 A2966 RMK AO2 SLP042
 T02060144=
KALB 040251Z 24005KT 10SM FEW080 SCT110 SCT230 20/14 A2967 RMK AO2 SLP047
 T02000144 51022=
KALB 040351Z 26006KT 10SM FEW065 FEW110 FEW230 18/14 A2969 RMK AO2 SLP053
 T01830144=
KALB 040451Z 24007KT 10SM FEW110 FEW230 19/15 A2970 RMK AO2 SLP057 T01890150
 402720144=
KALB 040551Z 00000KT 10SM FEW110 17/14 A2972 RMK AO2 SLP062 T01720139 10239
 20167 51015=